sensor_id;sensor_type;location;lat;lon;timestamp;P1;durP1;ratioP1;P2;durP2;ratioP2
68509;SDS011;55512;50.102;19.958;2023-05-21T00:01:39;16.70;;;11.30;;
68509;SDS011;55512;50.102;19.958;2023-05-21T00:04:05;17.50;;;11.10;;
68509;SDS011;55512;50.102;19.958;2023-05-21T00:06:34;15.60;;;11.80;;
68509;SDS011;55512;50.102;19.958;2023-05-21T00:09:04;14.70;;;10.60;;
68509;SDS011;55512;50.102;19.958;2023-05-21T00:11:31;16.60;;;10.30;;
68509;SDS011;55512;50.102;19.958;2023-05-21T00:13:57;17.50;;;12.00;;
68509;SDS011;55512;50.102;19.958;2023-05-21T00:16:23;15.30;;;10.70;;
68509;SDS011;55512;50.102;19.958;2023-05-21T00:18:49;16.90;;;11.70;;
68509;SDS011;55512;50.102;19.958;2023-05-21T00:21:19;18.50;;;12.40;;
68509;SDS011;55512;50.102;19.958;2023-05-21T00:23:48;16.30;;;11.20;;
68509;SDS011;55512;50.102;19.958;2023-05-21T00:26:19;16.60;;;11.10;;
68509;SDS011;55512;50.102;19.958;2023-05-21T00:28:45;14.60;;;10.50;;
68509;SDS011;55512;50.102;19.958;2023-05-21T00:31:11;15.60;;;11.50;;
68509;SDS011;55512;50.102;19.958;2023-05-21T00:33:37;15.50;;;11.00;;
68509;SDS011;55512;50.102;19.958;2023-05-21T00:36:03;15.90;;;10.80;;
68509;SDS011;55512;50.102;19.958;2023-05-21T00:38:30;15.90;;;10.80;;
68509;SDS011;55512;50.102;19.958;2023-05-21T00:41:06;15.80;;;11.00;;
68509;SDS011;55512;50.102;19.958;2023-05-21T00:43:31;15.90;;;10.40;;
68509;SDS011;55512;50.102;19.958;2023-05-21T00:45:58;15.00;;;10.90;;
68509;SDS011;55512;50.102;19.958;2023-05-21T00:48:24;18.00;;;11.50;;
68509;SDS011;55512;50.102;19.958;2023-05-21T00:50:50;17.10;;;11.10;;
68509;SDS011;55512;50.102;19.958;2023-05-21T00:53:17;18.10;;;12.30;;
68509;SDS011;55512;50.102;19.958;2023-05-21T00:55:44;16.00;;;11.10;;
68509;SDS011;55512;50.102;19.958;2023-05-21T00:58:10;18.50;;;11.80;;
68509;SDS011;55512;50.102;19.958;2023-05-21T01:00:36;15.90;;;11.20;;
68509;SDS011;55512;50.102;19.958;2023-05-21T01:03:02;14.90;;;10.70;;
68509;SDS011;55512;50.102;19.958;2023-05-21T01:05:29;16.80;;;10.90;;
68509;SDS011;55512;50.102;19.958;2023-05-21T01:07:56;16.80;;;11.20;;
68509;SDS011;55512;50.102;19.958;2023-05-21T01:10:23;17.70;;;11.60;;
68509;SDS011;55512;50.102;19.958;2023-05-21T01:12:50;13.30;;;9.20;;
68509;SDS011;55512;50.102;19.958;2023-05-21T01:15:17;16.60;;;11.60;;
68509;SDS011;55512;50.102;19.958;2023-05-21T01:17:42;18.20;;;11.80;;
68509;SDS011;55512;50.102;19.958;2023-05-21T01:20:16;16.90;;;12.20;;
68509;SDS011;55512;50.102;19.958;2023-05-21T01:23:02;16.60;;;11.50;;
68509;SDS011;55512;50.102;19.958;2023-05-21T01:25:27;16.80;;;11.50;;
68509;SDS011;55512;50.102;19.958;2023-05-21T01:27:53;18.40;;;12.10;;
68509;SDS011;55512;50.102;19.958;2023-05-21T01:30:21;16.10;;;11.60;;
68509;SDS011;55512;50.102;19.958;2023-05-21T01:33:03;17.90;;;11.50;;
68509;SDS011;55512;50.102;19.958;2023-05-21T01:35:46;16.70;;;11.20;;
68509;SDS011;55512;50.102;19.958;2023-05-21T01:38:22;16.40;;;11.50;;
68509;SDS011;55512;50.102;19.958;2023-05-21T01:43:23;15.40;;;11.10;;
68509;SDS011;55512;50.102;19.958;2023-05-21T01:45:54;15.70;;;11.00;;
68509;SDS011;55512;50.102;19.958;2023-05-21T01:48:24;16.00;;;11.10;;
68509;SDS011;55512;50.102;19.958;2023-05-21T01:50:52;15.50;;;10.80;;
68509;SDS011;55512;50.102;19.958;2023-05-21T01:53:20;16.80;;;11.20;;
68509;SDS011;55512;50.102;19.958;2023-05-21T01:55:46;17.90;;;11.10;;
68509;SDS011;55512;50.102;19.958;2023-05-21T01:58:13;13.60;;;10.00;;
68509;SDS011;55512;50.102;19.958;2023-05-21T02:00:43;18.30;;;11.60;;
68509;SDS011;55512;50.102;19.958;2023-05-21T02:03:10;16.00;;;10.70;;
68509;SDS011;55512;50.102;19.958;2023-05-21T02:05:36;14.70;;;10.70;;
68509;SDS011;55512;50.102;19.958;2023-05-21T02:08:01;15.70;;;10.40;;
68509;SDS011;55512;50.102;19.958;2023-05-21T02:10:28;15.50;;;10.20;;
68509;SDS011;55512;50.102;19.958;2023-05-21T02:12:53;14.90;;;10.20;;
68509;SDS011;55512;50.102;19.958;2023-05-21T02:15:19;15.70;;;10.10;;
68509;SDS011;55512;50.102;19.958;2023-05-21T02:17:45;15.40;;;10.20;;
68509;SDS011;55512;50.102;19.958;2023-05-21T02:20:11;13.10;;;9.20;;
68509;SDS011;55512;50.102;19.958;2023-05-21T02:22:45;13.80;;;9.40;;
68509;SDS011;55512;50.102;19.958;2023-05-21T02:25:14;13.50;;;9.30;;
68509;SDS011;55512;50.102;19.958;2023-05-21T02:27:41;13.80;;;10.00;;
68509;SDS011;55512;50.102;19.958;2023-05-21T02:30:10;12.80;;;9.20;;
68509;SDS011;55512;50.102;19.958;2023-05-21T02:32:37;13.10;;;9.40;;
68509;SDS011;55512;50.102;19.958;2023-05-21T02:35:07;15.40;;;9.40;;
68509;SDS011;55512;50.102;19.958;2023-05-21T02:37:34;13.40;;;9.40;;
68509;SDS011;55512;50.102;19.958;2023-05-21T02:40:01;12.90;;;8.80;;
68509;SDS011;55512;50.102;19.958;2023-05-21T02:42:30;13.50;;;8.40;;
68509;SDS011;55512;50.102;19.958;2023-05-21T02:44:56;13.50;;;9.10;;
68509;SDS011;55512;50.102;19.958;2023-05-21T02:47:22;12.70;;;8.40;;
68509;SDS011;55512;50.102;19.958;2023-05-21T02:49:49;11.40;;;8.40;;
68509;SDS011;55512;50.102;19.958;2023-05-21T02:52:16;13.60;;;8.90;;
68509;SDS011;55512;50.102;19.958;2023-05-21T02:54:45;13.40;;;9.10;;
68509;SDS011;55512;50.102;19.958;2023-05-21T02:57:11;12.50;;;8.30;;
68509;SDS011;55512;50.102;19.958;2023-05-21T02:59:37;12.90;;;8.40;;
68509;SDS011;55512;50.102;19.958;2023-05-21T03:02:03;13.30;;;8.20;;
68509;SDS011;55512;50.102;19.958;2023-05-21T03:04:29;12.00;;;7.70;;
68509;SDS011;55512;50.102;19.958;2023-05-21T03:06:55;12.60;;;7.90;;
68509;SDS011;55512;50.102;19.958;2023-05-21T03:09:21;15.60;;;8.00;;
68509;SDS011;55512;50.102;19.958;2023-05-21T03:11:48;13.10;;;7.90;;
68509;SDS011;55512;50.102;19.958;2023-05-21T03:14:14;15.90;;;9.70;;
68509;SDS011;55512;50.102;19.958;2023-05-21T03:16:40;11.60;;;7.80;;
68509;SDS011;55512;50.102;19.958;2023-05-21T03:19:08;11.50;;;8.00;;
68509;SDS011;55512;50.102;19.958;2023-05-21T03:21:37;12.70;;;7.60;;
68509;SDS011;55512;50.102;19.958;2023-05-21T03:24:06;12.30;;;7.40;;
68509;SDS011;55512;50.102;19.958;2023-05-21T03:26:31;10.70;;;7.20;;
68509;SDS011;55512;50.102;19.958;2023-05-21T03:28:58;12.30;;;7.60;;
68509;SDS011;55512;50.102;19.958;2023-05-21T03:31:24;12.10;;;7.20;;
68509;SDS011;55512;50.102;19.958;2023-05-21T03:33:51;11.90;;;7.30;;
68509;SDS011;55512;50.102;19.958;2023-05-21T03:36:18;12.20;;;7.40;;
68509;SDS011;55512;50.102;19.958;2023-05-21T03:38:44;13.30;;;7.80;;
68509;SDS011;55512;50.102;19.958;2023-05-21T03:41:11;11.00;;;7.00;;
68509;SDS011;55512;50.102;19.958;2023-05-21T03:43:37;11.80;;;7.30;;
68509;SDS011;55512;50.102;19.958;2023-05-21T03:46:03;11.70;;;7.20;;
68509;SDS011;55512;50.102;19.958;2023-05-21T03:48:28;9.90;;;7.00;;
68509;SDS011;55512;50.102;19.958;2023-05-21T03:50:54;9.80;;;6.40;;
68509;SDS011;55512;50.102;19.958;2023-05-21T03:53:21;10.20;;;6.40;;
68509;SDS011;55512;50.102;19.958;2023-05-21T03:55:46;11.90;;;6.70;;
68509;SDS011;55512;50.102;19.958;2023-05-21T03:58:21;9.90;;;6.70;;
68509;SDS011;55512;50.102;19.958;2023-05-21T04:00:47;10.40;;;6.40;;
68509;SDS011;55512;50.102;19.958;2023-05-21T04:03:12;11.00;;;7.20;;
68509;SDS011;55512;50.102;19.958;2023-05-21T04:05:40;11.90;;;7.00;;
68509;SDS011;55512;50.102;19.958;2023-05-21T04:08:06;10.50;;;6.60;;
68509;SDS011;55512;50.102;19.958;2023-05-21T04:10:32;11.50;;;6.40;;
68509;SDS011;55512;50.102;19.958;2023-05-21T04:12:58;10.40;;;6.20;;
68509;SDS011;55512;50.102;19.958;2023-05-21T04:15:24;10.10;;;6.80;;
68509;SDS011;55512;50.102;19.958;2023-05-21T04:17:49;12.00;;;6.80;;
68509;SDS011;55512;50.102;19.958;2023-05-21T04:20:16;11.40;;;7.00;;
68509;SDS011;55512;50.102;19.958;2023-05-21T04:22:42;10.30;;;6.40;;
68509;SDS011;55512;50.102;19.958;2023-05-21T04:25:08;10.60;;;6.00;;
68509;SDS011;55512;50.102;19.958;2023-05-21T04:27:35;10.50;;;6.40;;
68509;SDS011;55512;50.102;19.958;2023-05-21T04:30:01;10.70;;;6.20;;
68509;SDS011;55512;50.102;19.958;2023-05-21T04:32:31;10.50;;;6.50;;
68509;SDS011;55512;50.102;19.958;2023-05-21T04:34:57;9.60;;;6.20;;
68509;SDS011;55512;50.102;19.958;2023-05-21T04:37:25;11.50;;;6.30;;
68509;SDS011;55512;50.102;19.958;2023-05-21T04:39:53;9.80;;;6.00;;
68509;SDS011;55512;50.102;19.958;2023-05-21T04:42:19;10.10;;;5.30;;
68509;SDS011;55512;50.102;19.958;2023-05-21T04:44:48;10.70;;;6.00;;
68509;SDS011;55512;50.102;19.958;2023-05-21T04:50:00;11.00;;;6.00;;
68509;SDS011;55512;50.102;19.958;2023-05-21T04:52:26;9.90;;;5.80;;
68509;SDS011;55512;50.102;19.958;2023-05-21T04:54:52;9.00;;;5.70;;
68509;SDS011;55512;50.102;19.958;2023-05-21T04:57:18;8.90;;;5.30;;
68509;SDS011;55512;50.102;19.958;2023-05-21T04:59:44;8.80;;;6.00;;
68509;SDS011;55512;50.102;19.958;2023-05-21T05:02:09;10.00;;;5.70;;
68509;SDS011;55512;50.102;19.958;2023-05-21T05:04:35;9.30;;;6.10;;
68509;SDS011;55512;50.102;19.958;2023-05-21T05:07:00;8.50;;;5.00;;
68509;SDS011;55512;50.102;19.958;2023-05-21T05:09:26;9.00;;;5.50;;
68509;SDS011;55512;50.102;19.958;2023-05-21T05:11:54;9.00;;;5.70;;
68509;SDS011;55512;50.102;19.958;2023-05-21T05:14:20;8.90;;;5.50;;
68509;SDS011;55512;50.102;19.958;2023-05-21T05:16:45;9.80;;;5.50;;
68509;SDS011;55512;50.102;19.958;2023-05-21T05:19:12;10.40;;;6.20;;
68509;SDS011;55512;50.102;19.958;2023-05-21T05:21:38;9.30;;;5.50;;
68509;SDS011;55512;50.102;19.958;2023-05-21T05:24:04;9.50;;;5.50;;
68509;SDS011;55512;50.102;19.958;2023-05-21T05:26:30;10.90;;;5.70;;
68509;SDS011;55512;50.102;19.958;2023-05-21T05:28:55;10.20;;;5.80;;
68509;SDS011;55512;50.102;19.958;2023-05-21T05:31:21;8.20;;;4.90;;
68509;SDS011;55512;50.102;19.958;2023-05-21T05:33:47;10.20;;;5.00;;
68509;SDS011;55512;50.102;19.958;2023-05-21T05:36:12;8.70;;;5.00;;
68509;SDS011;55512;50.102;19.958;2023-05-21T05:38:38;8.80;;;5.70;;
68509;SDS011;55512;50.102;19.958;2023-05-21T05:41:04;10.20;;;5.70;;
68509;SDS011;55512;50.102;19.958;2023-05-21T05:43:30;9.80;;;5.30;;
68509;SDS011;55512;50.102;19.958;2023-05-21T05:45:55;8.90;;;4.90;;
68509;SDS011;55512;50.102;19.958;2023-05-21T05:48:21;8.20;;;4.90;;
68509;SDS011;55512;50.102;19.958;2023-05-21T05:50:47;10.50;;;4.90;;
68509;SDS011;55512;50.102;19.958;2023-05-21T05:53:12;9.60;;;5.50;;
68509;SDS011;55512;50.102;19.958;2023-05-21T05:55:39;8.70;;;5.30;;
68509;SDS011;55512;50.102;19.958;2023-05-21T05:58:05;7.80;;;5.00;;
68509;SDS011;55512;50.102;19.958;2023-05-21T06:00:31;8.90;;;5.10;;
68509;SDS011;55512;50.102;19.958;2023-05-21T06:02:57;9.70;;;5.10;;
68509;SDS011;55512;50.102;19.958;2023-05-21T06:05:22;9.20;;;5.00;;
68509;SDS011;55512;50.102;19.958;2023-05-21T06:07:48;10.10;;;5.00;;
68509;SDS011;55512;50.102;19.958;2023-05-21T06:10:13;11.20;;;5.10;;
68509;SDS011;55512;50.102;19.958;2023-05-21T06:12:39;7.90;;;4.60;;
68509;SDS011;55512;50.102;19.958;2023-05-21T06:15:05;9.50;;;4.80;;
68509;SDS011;55512;50.102;19.958;2023-05-21T06:17:31;9.10;;;4.90;;
68509;SDS011;55512;50.102;19.958;2023-05-21T06:19:57;8.00;;;4.80;;
68509;SDS011;55512;50.102;19.958;2023-05-21T06:22:22;8.40;;;4.30;;
68509;SDS011;55512;50.102;19.958;2023-05-21T06:24:48;7.90;;;4.60;;
68509;SDS011;55512;50.102;19.958;2023-05-21T06:27:14;9.30;;;4.90;;
68509;SDS011;55512;50.102;19.958;2023-05-21T06:29:39;9.70;;;4.50;;
68509;SDS011;55512;50.102;19.958;2023-05-21T06:32:06;8.60;;;4.90;;
68509;SDS011;55512;50.102;19.958;2023-05-21T06:34:32;9.50;;;5.30;;
68509;SDS011;55512;50.102;19.958;2023-05-21T06:36:58;8.60;;;4.70;;
68509;SDS011;55512;50.102;19.958;2023-05-21T06:39:23;7.90;;;4.60;;
68509;SDS011;55512;50.102;19.958;2023-05-21T06:41:49;8.40;;;4.40;;
68509;SDS011;55512;50.102;19.958;2023-05-21T06:44:15;8.90;;;4.40;;
68509;SDS011;55512;50.102;19.958;2023-05-21T06:46:41;8.10;;;3.60;;
68509;SDS011;55512;50.102;19.958;2023-05-21T06:49:07;8.30;;;4.40;;
68509;SDS011;55512;50.102;19.958;2023-05-21T06:51:32;8.90;;;4.90;;
68509;SDS011;55512;50.102;19.958;2023-05-21T06:53:58;7.20;;;4.60;;
68509;SDS011;55512;50.102;19.958;2023-05-21T06:56:24;8.60;;;5.10;;
68509;SDS011;55512;50.102;19.958;2023-05-21T06:58:50;9.80;;;4.80;;
68509;SDS011;55512;50.102;19.958;2023-05-21T07:01:16;8.10;;;4.60;;
68509;SDS011;55512;50.102;19.958;2023-05-21T07:03:42;9.20;;;4.70;;
68509;SDS011;55512;50.102;19.958;2023-05-21T07:06:07;9.10;;;4.30;;
68509;SDS011;55512;50.102;19.958;2023-05-21T07:08:33;7.70;;;4.80;;
68509;SDS011;55512;50.102;19.958;2023-05-21T07:10:58;7.90;;;4.70;;
68509;SDS011;55512;50.102;19.958;2023-05-21T07:13:24;9.90;;;4.70;;
68509;SDS011;55512;50.102;19.958;2023-05-21T07:15:49;8.50;;;5.20;;
68509;SDS011;55512;50.102;19.958;2023-05-21T07:18:15;10.00;;;5.40;;
68509;SDS011;55512;50.102;19.958;2023-05-21T07:20:41;8.50;;;4.70;;
68509;SDS011;55512;50.102;19.958;2023-05-21T07:23:06;8.90;;;5.30;;
68509;SDS011;55512;50.102;19.958;2023-05-21T07:25:32;9.30;;;5.00;;
68509;SDS011;55512;50.102;19.958;2023-05-21T07:27:58;9.30;;;5.60;;
68509;SDS011;55512;50.102;19.958;2023-05-21T07:30:23;10.30;;;5.10;;
68509;SDS011;55512;50.102;19.958;2023-05-21T07:32:49;9.90;;;5.00;;
68509;SDS011;55512;50.102;19.958;2023-05-21T07:35:14;8.70;;;4.40;;
68509;SDS011;55512;50.102;19.958;2023-05-21T07:37:40;9.40;;;4.80;;
68509;SDS011;55512;50.102;19.958;2023-05-21T07:40:06;10.10;;;5.30;;
68509;SDS011;55512;50.102;19.958;2023-05-21T07:42:32;9.50;;;4.70;;
68509;SDS011;55512;50.102;19.958;2023-05-21T07:44:58;9.60;;;5.40;;
68509;SDS011;55512;50.102;19.958;2023-05-21T07:47:24;10.00;;;4.70;;
68509;SDS011;55512;50.102;19.958;2023-05-21T07:49:50;10.60;;;4.90;;
68509;SDS011;55512;50.102;19.958;2023-05-21T07:52:15;8.80;;;5.00;;
68509;SDS011;55512;50.102;19.958;2023-05-21T07:54:41;8.60;;;5.20;;
68509;SDS011;55512;50.102;19.958;2023-05-21T07:57:06;11.60;;;5.10;;
68509;SDS011;55512;50.102;19.958;2023-05-21T07:59:31;8.20;;;5.20;;
68509;SDS011;55512;50.102;19.958;2023-05-21T08:01:58;9.60;;;4.70;;
68509;SDS011;55512;50.102;19.958;2023-05-21T08:04:24;8.60;;;4.90;;
68509;SDS011;55512;50.102;19.958;2023-05-21T08:06:50;8.10;;;4.60;;
68509;SDS011;55512;50.102;19.958;2023-05-21T08:09:16;9.80;;;4.70;;
68509;SDS011;55512;50.102;19.958;2023-05-21T08:11:44;7.90;;;4.50;;
68509;SDS011;55512;50.102;19.958;2023-05-21T08:14:10;8.50;;;4.50;;
68509;SDS011;55512;50.102;19.958;2023-05-21T08:16:36;8.90;;;4.90;;
68509;SDS011;55512;50.102;19.958;2023-05-21T08:19:02;8.10;;;4.60;;
68509;SDS011;55512;50.102;19.958;2023-05-21T08:21:28;8.60;;;5.40;;
68509;SDS011;55512;50.102;19.958;2023-05-21T08:23:53;9.40;;;4.10;;
68509;SDS011;55512;50.102;19.958;2023-05-21T08:26:19;8.50;;;4.70;;
68509;SDS011;55512;50.102;19.958;2023-05-21T08:28:45;8.70;;;4.80;;
68509;SDS011;55512;50.102;19.958;2023-05-21T08:31:11;8.80;;;4.60;;
68509;SDS011;55512;50.102;19.958;2023-05-21T08:33:37;7.70;;;4.60;;
68509;SDS011;55512;50.102;19.958;2023-05-21T08:36:04;7.90;;;4.60;;
68509;SDS011;55512;50.102;19.958;2023-05-21T08:38:31;7.20;;;4.40;;
68509;SDS011;55512;50.102;19.958;2023-05-21T08:40:58;7.60;;;4.00;;
68509;SDS011;55512;50.102;19.958;2023-05-21T08:43:27;9.10;;;4.60;;
68509;SDS011;55512;50.102;19.958;2023-05-21T08:45:54;8.70;;;5.00;;
68509;SDS011;55512;50.102;19.958;2023-05-21T08:48:23;9.70;;;3.90;;
68509;SDS011;55512;50.102;19.958;2023-05-21T08:50:50;8.50;;;4.80;;
68509;SDS011;55512;50.102;19.958;2023-05-21T08:53:17;8.40;;;4.30;;
68509;SDS011;55512;50.102;19.958;2023-05-21T08:55:43;8.50;;;4.40;;
68509;SDS011;55512;50.102;19.958;2023-05-21T08:58:09;7.10;;;4.20;;
68509;SDS011;55512;50.102;19.958;2023-05-21T09:00:35;8.10;;;4.30;;
68509;SDS011;55512;50.102;19.958;2023-05-21T09:03:03;8.30;;;3.80;;
68509;SDS011;55512;50.102;19.958;2023-05-21T09:05:34;7.20;;;4.10;;
68509;SDS011;55512;50.102;19.958;2023-05-21T09:10:55;8.90;;;4.40;;
68509;SDS011;55512;50.102;19.958;2023-05-21T09:13:20;8.90;;;4.30;;
68509;SDS011;55512;50.102;19.958;2023-05-21T09:15:46;7.60;;;4.60;;
68509;SDS011;55512;50.102;19.958;2023-05-21T09:18:13;6.80;;;4.00;;
68509;SDS011;55512;50.102;19.958;2023-05-21T09:20:39;7.30;;;4.00;;
68509;SDS011;55512;50.102;19.958;2023-05-21T09:23:06;7.20;;;3.80;;
68509;SDS011;55512;50.102;19.958;2023-05-21T09:25:44;7.70;;;3.90;;
68509;SDS011;55512;50.102;19.958;2023-05-21T09:28:12;7.40;;;3.90;;
68509;SDS011;55512;50.102;19.958;2023-05-21T09:30:46;8.40;;;4.10;;
68509;SDS011;55512;50.102;19.958;2023-05-21T09:33:23;8.00;;;4.00;;
68509;SDS011;55512;50.102;19.958;2023-05-21T09:35:50;7.20;;;4.10;;
68509;SDS011;55512;50.102;19.958;2023-05-21T09:38:16;7.60;;;4.30;;
68509;SDS011;55512;50.102;19.958;2023-05-21T09:40:45;8.10;;;3.80;;
68509;SDS011;55512;50.102;19.958;2023-05-21T09:43:14;6.20;;;3.10;;
68509;SDS011;55512;50.102;19.958;2023-05-21T09:45:50;8.50;;;3.80;;
68509;SDS011;55512;50.102;19.958;2023-05-21T09:51:16;7.90;;;3.90;;
68509;SDS011;55512;50.102;19.958;2023-05-21T09:53:55;8.30;;;4.20;;
68509;SDS011;55512;50.102;19.958;2023-05-21T09:56:28;8.30;;;4.10;;
68509;SDS011;55512;50.102;19.958;2023-05-21T09:58:59;8.30;;;3.40;;
68509;SDS011;55512;50.102;19.958;2023-05-21T10:01:30;7.80;;;4.00;;
68509;SDS011;55512;50.102;19.958;2023-05-21T10:04:00;7.30;;;3.40;;
68509;SDS011;55512;50.102;19.958;2023-05-21T10:06:31;6.50;;;3.70;;
68509;SDS011;55512;50.102;19.958;2023-05-21T10:09:01;5.40;;;3.10;;
68509;SDS011;55512;50.102;19.958;2023-05-21T10:11:36;7.70;;;3.90;;
68509;SDS011;55512;50.102;19.958;2023-05-21T10:14:14;7.30;;;3.80;;
68509;SDS011;55512;50.102;19.958;2023-05-21T10:16:41;7.30;;;3.40;;
68509;SDS011;55512;50.102;19.958;2023-05-21T10:19:08;5.70;;;3.70;;
68509;SDS011;55512;50.102;19.958;2023-05-21T10:21:37;7.60;;;3.80;;
68509;SDS011;55512;50.102;19.958;2023-05-21T10:24:05;7.90;;;4.00;;
68509;SDS011;55512;50.102;19.958;2023-05-21T10:26:33;7.00;;;4.30;;
68509;SDS011;55512;50.102;19.958;2023-05-21T10:29:01;6.70;;;3.40;;
68509;SDS011;55512;50.102;19.958;2023-05-21T10:31:28;6.50;;;3.50;;
68509;SDS011;55512;50.102;19.958;2023-05-21T10:33:54;7.90;;;4.00;;
68509;SDS011;55512;50.102;19.958;2023-05-21T10:36:20;8.00;;;3.80;;
68509;SDS011;55512;50.102;19.958;2023-05-21T10:38:48;8.00;;;4.00;;
68509;SDS011;55512;50.102;19.958;2023-05-21T10:41:16;8.00;;;4.00;;
68509;SDS011;55512;50.102;19.958;2023-05-21T10:47:15;8.70;;;3.70;;
68509;SDS011;55512;50.102;19.958;2023-05-21T10:56:37;7.70;;;3.50;;
68509;SDS011;55512;50.102;19.958;2023-05-21T11:02:10;6.80;;;3.80;;
68509;SDS011;55512;50.102;19.958;2023-05-21T11:04:39;9.40;;;4.70;;
68509;SDS011;55512;50.102;19.958;2023-05-21T11:07:07;6.90;;;4.30;;
68509;SDS011;55512;50.102;19.958;2023-05-21T11:09:33;8.10;;;4.20;;
68509;SDS011;55512;50.102;19.958;2023-05-21T11:11:59;8.20;;;3.60;;
68509;SDS011;55512;50.102;19.958;2023-05-21T11:17:11;8.30;;;5.00;;
68509;SDS011;55512;50.102;19.958;2023-05-21T11:19:41;8.00;;;4.50;;
68509;SDS011;55512;50.102;19.958;2023-05-21T11:22:23;7.10;;;4.00;;
68509;SDS011;55512;50.102;19.958;2023-05-21T11:24:59;8.40;;;4.40;;
68509;SDS011;55512;50.102;19.958;2023-05-21T11:27:33;5.20;;;2.90;;
68509;SDS011;55512;50.102;19.958;2023-05-21T11:35:57;9.00;;;3.70;;
68509;SDS011;55512;50.102;19.958;2023-05-21T11:38:29;6.60;;;3.70;;
68509;SDS011;55512;50.102;19.958;2023-05-21T11:41:00;8.40;;;4.20;;
68509;SDS011;55512;50.102;19.958;2023-05-21T11:43:27;7.00;;;4.30;;
68509;SDS011;55512;50.102;19.958;2023-05-21T11:45:53;6.60;;;3.40;;
68509;SDS011;55512;50.102;19.958;2023-05-21T11:48:22;6.60;;;3.40;;
68509;SDS011;55512;50.102;19.958;2023-05-21T11:50:48;6.20;;;3.70;;
68509;SDS011;55512;50.102;19.958;2023-05-21T11:53:14;7.40;;;4.00;;
68509;SDS011;55512;50.102;19.958;2023-05-21T11:55:40;6.10;;;3.40;;
68509;SDS011;55512;50.102;19.958;2023-05-21T11:58:08;8.40;;;4.90;;
68509;SDS011;55512;50.102;19.958;2023-05-21T12:00:43;7.20;;;3.30;;
68509;SDS011;55512;50.102;19.958;2023-05-21T12:03:12;6.90;;;3.10;;
68509;SDS011;55512;50.102;19.958;2023-05-21T12:05:45;6.20;;;3.60;;
68509;SDS011;55512;50.102;19.958;2023-05-21T12:08:11;5.50;;;3.50;;
68509;SDS011;55512;50.102;19.958;2023-05-21T12:10:37;6.20;;;3.30;;
68509;SDS011;55512;50.102;19.958;2023-05-21T12:13:06;7.20;;;3.00;;
68509;SDS011;55512;50.102;19.958;2023-05-21T12:15:31;8.20;;;3.20;;
68509;SDS011;55512;50.102;19.958;2023-05-21T12:17:57;6.90;;;4.20;;
68509;SDS011;55512;50.102;19.958;2023-05-21T12:20:25;7.20;;;4.10;;
68509;SDS011;55512;50.102;19.958;2023-05-21T12:22:52;7.90;;;3.70;;
68509;SDS011;55512;50.102;19.958;2023-05-21T12:25:21;8.10;;;4.20;;
68509;SDS011;55512;50.102;19.958;2023-05-21T12:27:47;6.40;;;3.60;;
68509;SDS011;55512;50.102;19.958;2023-05-21T12:30:21;6.40;;;3.40;;
68509;SDS011;55512;50.102;19.958;2023-05-21T12:32:50;5.30;;;3.10;;
68509;SDS011;55512;50.102;19.958;2023-05-21T12:35:22;7.50;;;3.90;;
68509;SDS011;55512;50.102;19.958;2023-05-21T12:37:48;5.70;;;3.00;;
68509;SDS011;55512;50.102;19.958;2023-05-21T12:40:15;7.50;;;3.40;;
68509;SDS011;55512;50.102;19.958;2023-05-21T12:42:42;5.90;;;2.90;;
68509;SDS011;55512;50.102;19.958;2023-05-21T12:45:09;5.40;;;3.00;;
68509;SDS011;55512;50.102;19.958;2023-05-21T12:47:36;5.80;;;3.00;;
68509;SDS011;55512;50.102;19.958;2023-05-21T12:50:03;5.80;;;2.90;;
68509;SDS011;55512;50.102;19.958;2023-05-21T12:52:32;5.90;;;2.90;;
68509;SDS011;55512;50.102;19.958;2023-05-21T12:54:58;6.70;;;3.50;;
68509;SDS011;55512;50.102;19.958;2023-05-21T12:57:26;7.10;;;3.20;;
68509;SDS011;55512;50.102;19.958;2023-05-21T13:02:24;6.80;;;2.70;;
68509;SDS011;55512;50.102;19.958;2023-05-21T13:07:21;6.50;;;3.00;;
68509;SDS011;55512;50.102;19.958;2023-05-21T13:09:48;7.40;;;3.60;;
68509;SDS011;55512;50.102;19.958;2023-05-21T13:12:17;8.40;;;3.40;;
68509;SDS011;55512;50.102;19.958;2023-05-21T13:14:43;6.30;;;3.20;;
68509;SDS011;55512;50.102;19.958;2023-05-21T13:17:09;6.50;;;3.20;;
68509;SDS011;55512;50.102;19.958;2023-05-21T13:19:35;8.30;;;4.10;;
68509;SDS011;55512;50.102;19.958;2023-05-21T13:22:01;7.80;;;3.40;;
68509;SDS011;55512;50.102;19.958;2023-05-21T13:24:27;7.90;;;3.50;;
68509;SDS011;55512;50.102;19.958;2023-05-21T13:26:53;6.90;;;3.40;;
68509;SDS011;55512;50.102;19.958;2023-05-21T13:29:18;7.20;;;4.00;;
68509;SDS011;55512;50.102;19.958;2023-05-21T13:31:44;7.20;;;3.40;;
68509;SDS011;55512;50.102;19.958;2023-05-21T13:34:11;8.10;;;3.50;;
68509;SDS011;55512;50.102;19.958;2023-05-21T13:36:37;6.80;;;3.20;;
68509;SDS011;55512;50.102;19.958;2023-05-21T13:39:03;6.20;;;3.10;;
68509;SDS011;55512;50.102;19.958;2023-05-21T13:41:29;5.80;;;2.90;;
68509;SDS011;55512;50.102;19.958;2023-05-21T13:43:54;5.50;;;3.00;;
68509;SDS011;55512;50.102;19.958;2023-05-21T13:46:20;5.80;;;3.40;;
68509;SDS011;55512;50.102;19.958;2023-05-21T13:48:45;5.30;;;2.80;;
68509;SDS011;55512;50.102;19.958;2023-05-21T13:51:11;5.90;;;2.60;;
68509;SDS011;55512;50.102;19.958;2023-05-21T13:53:36;8.20;;;2.80;;
68509;SDS011;55512;50.102;19.958;2023-05-21T13:56:03;6.40;;;3.30;;
68509;SDS011;55512;50.102;19.958;2023-05-21T13:58:28;6.90;;;3.10;;
68509;SDS011;55512;50.102;19.958;2023-05-21T14:00:59;4.70;;;2.70;;
68509;SDS011;55512;50.102;19.958;2023-05-21T14:03:25;6.20;;;3.00;;
68509;SDS011;55512;50.102;19.958;2023-05-21T14:05:52;5.10;;;2.40;;
68509;SDS011;55512;50.102;19.958;2023-05-21T14:08:18;6.20;;;2.70;;
68509;SDS011;55512;50.102;19.958;2023-05-21T14:10:45;6.40;;;2.90;;
68509;SDS011;55512;50.102;19.958;2023-05-21T14:13:12;5.60;;;2.70;;
68509;SDS011;55512;50.102;19.958;2023-05-21T14:15:38;5.70;;;3.00;;
68509;SDS011;55512;50.102;19.958;2023-05-21T14:18:04;5.80;;;2.90;;
68509;SDS011;55512;50.102;19.958;2023-05-21T14:20:32;5.10;;;2.60;;
68509;SDS011;55512;50.102;19.958;2023-05-21T14:22:58;4.80;;;2.70;;
68509;SDS011;55512;50.102;19.958;2023-05-21T14:25:24;5.70;;;3.00;;
68509;SDS011;55512;50.102;19.958;2023-05-21T14:27:50;8.60;;;3.00;;
68509;SDS011;55512;50.102;19.958;2023-05-21T14:30:17;5.20;;;2.80;;
68509;SDS011;55512;50.102;19.958;2023-05-21T14:32:42;6.30;;;2.70;;
68509;SDS011;55512;50.102;19.958;2023-05-21T14:35:08;5.70;;;2.90;;
68509;SDS011;55512;50.102;19.958;2023-05-21T14:37:34;6.50;;;2.80;;
68509;SDS011;55512;50.102;19.958;2023-05-21T14:40:00;5.40;;;3.10;;
68509;SDS011;55512;50.102;19.958;2023-05-21T14:42:25;7.70;;;3.10;;
68509;SDS011;55512;50.102;19.958;2023-05-21T14:44:51;6.80;;;2.70;;
68509;SDS011;55512;50.102;19.958;2023-05-21T14:47:17;6.30;;;3.10;;
68509;SDS011;55512;50.102;19.958;2023-05-21T14:49:42;6.30;;;3.10;;
68509;SDS011;55512;50.102;19.958;2023-05-21T14:52:08;8.20;;;3.50;;
68509;SDS011;55512;50.102;19.958;2023-05-21T14:54:34;7.00;;;3.40;;
68509;SDS011;55512;50.102;19.958;2023-05-21T14:57:00;6.40;;;3.20;;
68509;SDS011;55512;50.102;19.958;2023-05-21T14:59:25;6.50;;;3.10;;
68509;SDS011;55512;50.102;19.958;2023-05-21T15:02:10;6.40;;;3.40;;
68509;SDS011;55512;50.102;19.958;2023-05-21T15:04:35;5.80;;;3.30;;
68509;SDS011;55512;50.102;19.958;2023-05-21T15:07:01;6.50;;;3.50;;